Time;durP1;ratioP1;P1;durP2;ratioP2;P2;SDS_P1;SDS_P2;PMS_P1;PMS_P2;Temp;Humidity;BMP_temperature;BMP_pressure;BME280_temperature;BME280_humidity;BME280_pressure;Samples;Min_cycle;Max_cycle;Signal;HPM_P1;HPM_P2
2022/03/17 00:02:14;;;;;;;41.00;28.03;;;6.50;81.40;;;;;;5066697;28;20258;-68
2022/03/17 00:04:41;;;;;;;41.70;27.40;;;6.50;81.80;;;;;;5070494;28;20300;-68
2022/03/17 00:07:08;;;;;;;41.50;28.03;;;6.40;82.00;;;;;;5061258;28;20258;-66
2022/03/17 00:09:35;;;;;;;43.93;28.73;;;6.40;82.30;;;;;;5075639;28;20220;-67
2022/03/17 00:12:04;;;;;;;42.60;27.83;;;6.40;82.40;;;;;;5069987;28;20877;-68
2022/03/17 00:14:31;;;;;;;50.50;29.67;;;6.30;82.30;;;;;;5059474;28;20213;-68
2022/03/17 00:16:58;;;;;;;43.73;27.50;;;6.30;82.70;;;;;;5073434;28;20231;-68
2022/03/17 00:19:25;;;;;;;41.07;27.93;;;6.30;83.00;;;;;;5074828;28;20288;-68
2022/03/17 00:21:52;;;;;;;40.93;26.60;;;6.20;83.30;;;;;;5074721;28;20582;-68
2022/03/17 00:24:19;;;;;;;40.37;27.67;;;6.20;83.60;;;;;;5071380;28;20301;-68
2022/03/17 00:26:46;;;;;;;44.57;27.60;;;6.10;83.80;;;;;;5075036;28;20217;-69
2022/03/17 00:29:19;;;;;;;45.53;28.20;;;6.10;84.10;;;;;;5074733;28;20264;-68
2022/03/17 00:31:45;;;;;;;41.33;26.93;;;6.10;84.60;;;;;;5073485;28;20741;-67
2022/03/17 00:34:12;;;;;;;41.23;27.40;;;6.00;84.50;;;;;;5071528;28;20726;-67
2022/03/17 00:36:39;;;;;;;43.40;27.33;;;6.00;85.40;;;;;;5065012;28;20649;-68
2022/03/17 00:39:08;;;;;;;43.97;27.43;;;6.00;84.80;;;;;;5062667;28;20569;-67
2022/03/17 00:41:35;;;;;;;38.20;26.27;;;5.90;85.10;;;;;;5071090;28;20312;-67
2022/03/17 00:44:03;;;;;;;45.73;27.13;;;5.90;85.30;;;;;;5056474;28;20305;-69
2022/03/17 00:46:31;;;;;;;42.20;26.30;;;5.90;85.50;;;;;;5072944;28;20213;-69
2022/03/17 00:48:58;;;;;;;45.00;27.37;;;5.80;85.80;;;;;;5064861;28;20634;-68
2022/03/17 00:51:25;;;;;;;44.17;27.80;;;5.80;86.10;;;;;;5065432;28;20209;-69
2022/03/17 00:53:52;;;;;;;42.77;26.97;;;5.80;86.60;;;;;;5071335;28;20355;-69
2022/03/17 00:56:19;;;;;;;41.00;26.73;;;5.70;86.60;;;;;;5073186;28;20631;-70
2022/03/17 00:58:48;;;;;;;46.70;28.60;;;5.70;87.00;;;;;;5073906;28;20296;-69
2022/03/17 01:01:16;;;;;;;41.87;26.20;;;5.70;87.50;;;;;;5072519;28;20752;-68
2022/03/17 01:03:45;;;;;;;42.50;27.37;;;5.70;87.90;;;;;;5071485;28;20214;-68
2022/03/17 01:06:15;;;;;;;41.40;26.63;;;5.60;88.30;;;;;;5064674;28;20727;-68
2022/03/17 01:08:42;;;;;;;36.87;25.93;;;5.60;88.80;;;;;;5073878;28;20201;-67
2022/03/17 01:11:09;;;;;;;43.53;27.77;;;5.50;89.20;;;;;;5072242;28;20259;-69
2022/03/17 01:13:36;;;;;;;39.83;26.67;;;5.50;89.70;;;;;;5072065;28;20310;-68
2022/03/17 01:16:03;;;;;;;41.83;26.70;;;5.60;90.10;;;;;;5063389;28;20665;-68
2022/03/17 01:18:30;;;;;;;37.13;25.53;;;5.50;90.20;;;;;;5065930;28;20198;-70
2022/03/17 01:20:58;;;;;;;43.20;27.43;;;5.50;90.50;;;;;;5063225;28;20229;-69
2022/03/17 01:23:25;;;;;;;40.93;27.03;;;5.50;90.50;;;;;;5069275;28;20202;-69
2022/03/17 01:25:52;;;;;;;41.30;26.17;;;5.40;90.70;;;;;;5068242;28;20642;-68
2022/03/17 01:28:19;;;;;;;41.73;27.27;;;5.40;91.00;;;;;;5067280;28;20293;-69
2022/03/17 01:30:46;;;;;;;37.70;26.30;;;5.40;91.20;;;;;;5064360;28;20654;-68
2022/03/17 01:33:13;;;;;;;41.63;27.40;;;5.40;91.50;;;;;;5069352;28;20729;-68
2022/03/17 01:35:39;;;;;;;38.87;26.23;;;5.40;91.70;;;;;;5065646;28;20669;-68
2022/03/17 01:38:08;;;;;;;44.10;28.37;;;5.30;91.90;;;;;;5060423;28;20655;-69
2022/03/17 01:40:35;;;;;;;45.30;26.97;;;5.30;92.20;;;;;;5061451;28;20319;-69
2022/03/17 01:43:02;;;;;;;41.20;26.93;;;5.30;92.40;;;;;;5069111;28;20584;-69
2022/03/17 01:45:29;;;;;;;45.47;27.30;;;5.30;92.60;;;;;;5072419;28;20300;-69
2022/03/17 01:47:56;;;;;;;42.40;26.67;;;5.30;92.80;;;;;;5065325;28;20704;-68
2022/03/17 01:50:24;;;;;;;45.73;27.53;;;5.20;93.00;;;;;;5055421;28;20214;-69
2022/03/17 01:52:51;;;;;;;40.17;26.93;;;5.20;93.20;;;;;;5059599;28;20939;-68
2022/03/17 01:55:20;;;;;;;44.57;28.40;;;5.20;93.30;;;;;;5054904;28;20202;-68
2022/03/17 01:57:48;;;;;;;42.90;27.47;;;5.20;93.50;;;;;;5055077;28;20665;-69
2022/03/17 02:00:18;;;;;;;39.10;26.27;;;5.20;93.70;;;;;;5057958;28;20210;-67
2022/03/17 02:02:47;;;;;;;39.27;25.90;;;5.10;93.80;;;;;;5057397;28;20248;-67
2022/03/17 02:05:14;;;;;;;44.73;27.63;;;5.10;93.90;;;;;;5058533;28;20230;-68
2022/03/17 02:07:43;;;;;;;38.63;26.17;;;5.10;94.10;;;;;;5064378;28;20202;-67
2022/03/17 02:10:10;;;;;;;43.30;27.10;;;5.00;94.20;;;;;;5058689;28;20265;-68
2022/03/17 02:15:27;;;;;;;42.93;25.37;;;4.90;94.50;;;;;;5063365;28;20247;-67
2022/03/17 02:17:55;;;;;;;43.50;27.13;;;4.90;94.60;;;;;;5064526;28;20651;-67
2022/03/17 02:20:24;;;;;;;46.07;26.90;;;4.90;94.90;;;;;;5069752;28;20235;-67
2022/03/17 02:22:53;;;;;;;40.30;27.23;;;4.80;95.00;;;;;;5065714;28;20651;-68
2022/03/17 02:25:34;;;;;;;39.30;25.07;;;4.80;95.20;;;;;;5059196;28;20690;-68
2022/03/17 02:28:02;;;;;;;40.90;26.03;;;4.80;95.30;;;;;;5062768;28;20205;-69
2022/03/17 02:30:30;;;;;;;36.90;24.70;;;4.80;95.50;;;;;;5071947;28;20266;-68
2022/03/17 02:33:02;;;;;;;40.27;25.43;;;4.80;95.60;;;;;;5059605;28;20316;-67
2022/03/17 02:35:32;;;;;;;34.23;23.50;;;4.80;95.80;;;;;;5059885;28;20288;-69
2022/03/17 02:37:59;;;;;;;36.83;24.23;;;4.70;95.90;;;;;;5072819;28;20219;-68
2022/03/17 02:40:27;;;;;;;36.43;24.50;;;4.70;96.10;;;;;;5066222;28;20233;-69
2022/03/17 02:42:55;;;;;;;37.77;24.17;;;4.70;96.30;;;;;;5075189;28;20233;-69
2022/03/17 02:45:23;;;;;;;38.13;24.20;;;4.70;96.50;;;;;;5076820;28;20209;-69
2022/03/17 02:47:50;;;;;;;36.63;24.63;;;4.70;96.60;;;;;;5076320;28;20648;-67
2022/03/17 02:50:18;;;;;;;38.27;24.40;;;4.70;96.80;;;;;;5063194;28;20240;-70
2022/03/17 02:52:46;;;;;;;37.43;24.83;;;4.70;97.00;;;;;;5071038;28;20287;-69
2022/03/17 02:55:14;;;;;;;38.50;26.30;;;4.70;97.00;;;;;;5073358;28;20311;-68
2022/03/17 02:57:43;;;;;;;36.13;24.30;;;4.70;97.20;;;;;;5074930;28;20208;-68
2022/03/17 03:00:12;;;;;;;40.20;24.07;;;4.70;97.30;;;;;;5073616;28;20623;-69
2022/03/17 03:02:40;;;;;;;37.00;23.63;;;4.60;97.40;;;;;;5071907;28;20296;-68
2022/03/17 03:05:08;;;;;;;40.17;25.17;;;4.60;97.60;;;;;;5076548;28;20216;-69
2022/03/17 03:07:35;;;;;;;37.13;23.40;;;4.50;97.80;;;;;;5076249;28;20205;-69
2022/03/17 03:10:03;;;;;;;38.63;24.77;;;4.50;98.00;;;;;;5060774;28;20240;-68
2022/03/17 03:12:30;;;;;;;40.03;25.27;;;4.40;98.30;;;;;;5073407;28;20201;-70
2022/03/17 03:14:58;;;;;;;33.27;23.30;;;4.40;98.50;;;;;;5076485;28;20322;-68
2022/03/17 03:17:25;;;;;;;38.20;23.77;;;4.40;98.80;;;;;;5075859;28;20215;-69
2022/03/17 03:19:53;;;;;;;37.60;24.60;;;4.40;99.10;;;;;;5076437;28;20208;-69
2022/03/17 03:22:20;;;;;;;36.17;23.10;;;4.30;99.40;;;;;;5073251;28;20225;-69
2022/03/17 03:24:47;;;;;;;37.00;24.23;;;4.30;99.60;;;;;;5074854;28;20193;-69
2022/03/17 03:27:14;;;;;;;38.63;24.67;;;4.20;99.90;;;;;;5066721;28;20214;-69
2022/03/17 03:29:41;;;;;;;38.53;24.37;;;4.20;99.90;;;;;;5074991;28;20681;-69
2022/03/17 03:32:10;;;;;;;40.00;24.37;;;4.10;99.90;;;;;;5074971;28;20285;-69
2022/03/17 03:34:37;;;;;;;40.93;24.63;;;4.10;99.90;;;;;;5075318;28;20228;-70
2022/03/17 03:39:49;;;;;;;36.80;22.67;;;4.10;99.90;;;;;;5059249;28;20230;-68
2022/03/17 03:42:16;;;;;;;35.03;23.37;;;4.00;99.90;;;;;;5075386;28;20227;-68
2022/03/17 03:44:42;;;;;;;40.27;23.57;;;4.00;99.90;;;;;;5059323;28;20208;-69
2022/03/17 03:47:11;;;;;;;38.33;23.80;;;4.00;99.90;;;;;;5075673;28;20272;-68
2022/03/17 03:49:39;;;;;;;38.60;23.50;;;4.00;99.90;;;;;;5074929;28;20235;-69
2022/03/17 03:52:07;;;;;;;40.13;24.27;;;4.00;99.90;;;;;;5068451;28;20650;-69
2022/03/17 03:54:34;;;;;;;36.40;23.73;;;3.90;99.90;;;;;;5068306;28;20218;-69
2022/03/17 03:57:02;;;;;;;36.40;24.10;;;3.90;99.90;;;;;;5075947;28;20209;-69
2022/03/17 03:59:29;;;;;;;37.77;24.30;;;3.90;99.90;;;;;;5064727;28;20238;-68
2022/03/17 04:01:59;;;;;;;37.30;24.10;;;3.90;99.90;;;;;;5067384;28;20206;-68
2022/03/17 04:04:28;;;;;;;43.93;26.93;;;3.80;99.90;;;;;;5065895;28;20236;-69
2022/03/17 04:06:58;;;;;;;39.70;25.70;;;3.80;99.90;;;;;;5074872;28;20233;-68
2022/03/17 04:09:27;;;;;;;38.63;27.23;;;3.80;99.90;;;;;;5075649;28;20212;-68
2022/03/17 04:11:55;;;;;;;38.00;25.67;;;3.80;99.90;;;;;;5074401;28;20312;-67
2022/03/17 04:14:22;;;;;;;38.13;25.30;;;3.80;99.90;;;;;;5068557;28;20352;-67
2022/03/17 04:16:49;;;;;;;40.43;26.20;;;3.80;99.90;;;;;;5069204;28;20212;-67
2022/03/17 04:19:16;;;;;;;38.93;24.73;;;3.80;99.90;;;;;;5076663;28;20197;-67
2022/03/17 04:21:45;;;;;;;39.10;26.73;;;3.80;99.90;;;;;;5073136;28;20315;-69
2022/03/17 04:24:13;;;;;;;36.57;23.50;;;3.80;99.90;;;;;;5066328;28;20205;-69
2022/03/17 04:26:40;;;;;;;34.53;23.83;;;3.80;99.90;;;;;;5064177;28;20213;-69
2022/03/17 04:29:09;;;;;;;36.27;23.17;;;3.80;99.90;;;;;;5070819;28;20210;-69
2022/03/17 04:31:37;;;;;;;42.10;24.93;;;3.90;99.90;;;;;;5073428;28;20201;-69
2022/03/17 04:34:04;;;;;;;34.63;23.43;;;3.80;99.90;;;;;;5074736;28;20705;-69
2022/03/17 04:36:31;;;;;;;35.93;23.53;;;3.80;99.90;;;;;;5073255;28;20209;-68
2022/03/17 04:39:00;;;;;;;37.23;22.47;;;3.90;99.90;;;;;;5065277;28;21033;-68
2022/03/17 04:41:27;;;;;;;40.67;23.67;;;3.90;99.90;;;;;;5057424;28;20247;-68
2022/03/17 04:43:54;;;;;;;36.97;22.93;;;3.90;99.90;;;;;;5066891;28;20240;-68
2022/03/17 04:46:21;;;;;;;36.20;23.37;;;3.90;99.90;;;;;;5062387;28;20292;-69
2022/03/17 04:48:48;;;;;;;37.20;22.90;;;3.90;99.90;;;;;;5068361;28;20625;-68
2022/03/17 04:51:16;;;;;;;35.07;23.30;;;3.90;99.90;;;;;;5074988;28;20204;-67
2022/03/17 04:53:43;;;;;;;45.20;24.63;;;3.90;99.90;;;;;;5069315;28;20601;-69
2022/03/17 04:56:14;;;;;;;34.97;23.30;;;3.90;99.90;;;;;;5063485;28;20787;-69
2022/03/17 04:58:42;;;;;;;37.37;24.47;;;3.90;99.90;;;;;;5074097;28;20201;-68
2022/03/17 05:01:10;;;;;;;36.07;23.63;;;3.90;99.90;;;;;;5074631;28;20208;-68
2022/03/17 05:03:38;;;;;;;36.73;23.53;;;3.90;99.90;;;;;;5075346;28;20209;-69
2022/03/17 05:06:06;;;;;;;36.43;23.90;;;3.90;99.90;;;;;;5074103;28;20296;-69
2022/03/17 05:08:35;;;;;;;35.97;23.57;;;3.90;99.90;;;;;;5074414;28;21436;-69
2022/03/17 05:11:03;;;;;;;38.03;24.60;;;3.90;99.90;;;;;;5072602;28;20216;-69
2022/03/17 05:13:31;;;;;;;40.73;23.33;;;3.90;99.90;;;;;;5056129;28;20718;-70
2022/03/17 05:15:59;;;;;;;36.00;22.60;;;3.90;99.90;;;;;;5074144;28;20218;-69
2022/03/17 05:18:27;;;;;;;36.83;23.23;;;3.90;99.90;;;;;;5073087;28;20211;-70
2022/03/17 05:20:54;;;;;;;37.17;23.60;;;4.00;99.90;;;;;;5060769;28;20270;-69
2022/03/17 05:23:22;;;;;;;34.80;22.67;;;4.10;99.90;;;;;;5073568;28;20208;-69
2022/03/17 05:25:50;;;;;;;34.93;22.80;;;4.10;99.90;;;;;;5065630;28;20206;-70
2022/03/17 05:28:18;;;;;;;36.70;23.43;;;4.10;99.90;;;;;;5064766;28;20658;-68
2022/03/17 05:30:47;;;;;;;35.10;22.77;;;4.10;99.90;;;;;;5069018;28;20639;-69
2022/03/17 05:33:14;;;;;;;33.63;23.23;;;4.20;99.90;;;;;;5068015;28;20212;-68
2022/03/17 05:35:43;;;;;;;38.10;24.10;;;4.20;99.90;;;;;;5060206;28;20214;-69
2022/03/17 05:38:10;;;;;;;36.33;23.33;;;4.30;99.90;;;;;;5068503;28;20296;-69
2022/03/17 05:40:37;;;;;;;36.57;24.00;;;4.30;99.90;;;;;;5068507;28;20269;-70
2022/03/17 05:43:06;;;;;;;38.53;22.90;;;4.40;99.90;;;;;;5065993;28;20710;-69
2022/03/17 05:45:35;;;;;;;37.67;24.20;;;4.40;99.90;;;;;;5072954;28;20204;-69
2022/03/17 05:48:05;;;;;;;34.10;23.30;;;4.40;99.90;;;;;;5070382;28;20210;-69
2022/03/17 05:50:34;;;;;;;38.43;23.57;;;4.40;99.90;;;;;;5071104;28;20263;-69
2022/03/17 05:53:01;;;;;;;35.13;22.83;;;4.40;99.90;;;;;;5072064;28;20210;-69
2022/03/17 05:55:29;;;;;;;35.33;22.73;;;4.40;99.90;;;;;;5073240;28;20231;-69
2022/03/17 05:57:57;;;;;;;32.53;22.87;;;4.40;99.90;;;;;;5062660;28;20300;-70
2022/03/17 06:00:27;;;;;;;42.47;24.47;;;4.50;99.90;;;;;;5069319;28;20296;-70
2022/03/17 06:02:55;;;;;;;39.67;23.17;;;4.50;99.90;;;;;;5057341;28;20209;-70
2022/03/17 06:05:25;;;;;;;36.37;23.40;;;4.50;99.90;;;;;;5071093;28;20669;-71
2022/03/17 06:07:54;;;;;;;34.00;22.90;;;4.70;99.90;;;;;;5072747;28;20621;-69
2022/03/17 06:10:23;;;;;;;35.67;23.50;;;4.70;99.90;;;;;;5057812;28;20211;-69
2022/03/17 06:12:51;;;;;;;34.77;24.00;;;4.80;99.90;;;;;;5073207;28;20730;-69
2022/03/17 06:15:20;;;;;;;39.77;23.80;;;4.90;99.90;;;;;;5072996;28;20308;-68
2022/03/17 06:17:49;;;;;;;41.63;24.07;;;5.10;99.90;;;;;;5072517;28;20205;-70
2022/03/17 06:20:17;;;;;;;40.47;23.73;;;5.10;99.90;;;;;;5073291;28;20270;-67
2022/03/17 06:22:49;;;;;;;38.40;22.90;;;5.20;99.90;;;;;;5073673;28;20251;-71
2022/03/17 06:25:18;;;;;;;41.73;23.53;;;5.10;99.90;;;;;;5067947;28;20229;-69
2022/03/17 06:27:48;;;;;;;38.27;24.40;;;5.10;99.90;;;;;;5067373;28;20248;-68
2022/03/17 06:30:17;;;;;;;37.83;24.57;;;5.00;99.90;;;;;;5072245;28;20297;-70
2022/03/17 06:32:44;;;;;;;38.47;23.87;;;5.00;99.90;;;;;;5073282;28;20237;-69
2022/03/17 06:35:17;;;;;;;37.27;24.33;;;4.90;99.90;;;;;;5072449;28;20225;-69
2022/03/17 06:37:46;;;;;;;39.00;25.33;;;4.90;99.90;;;;;;5071240;28;20214;-68
2022/03/17 06:40:14;;;;;;;38.37;24.47;;;4.90;99.90;;;;;;5060793;28;20237;-69
2022/03/17 06:42:41;;;;;;;33.83;22.33;;;4.90;99.90;;;;;;5068555;28;20217;-69
2022/03/17 06:45:10;;;;;;;40.77;24.03;;;4.90;99.90;;;;;;5072644;28;20205;-68
2022/03/17 06:47:40;;;;;;;40.07;23.60;;;5.00;99.90;;;;;;5072136;28;20201;-68
2022/03/17 06:50:08;;;;;;;35.73;24.67;;;5.00;99.90;;;;;;5063732;28;20619;-68
2022/03/17 06:52:35;;;;;;;33.43;22.87;;;5.10;99.90;;;;;;5063551;28;20221;-68
2022/03/17 06:55:04;;;;;;;35.30;24.07;;;5.20;99.90;;;;;;5070855;28;20319;-68
2022/03/17 06:57:31;;;;;;;35.83;23.17;;;5.30;99.90;;;;;;5072708;28;20220;-67
2022/03/17 06:59:58;;;;;;;38.07;23.07;;;5.30;99.90;;;;;;5072011;28;20331;-68
2022/03/17 07:02:25;;;;;;;35.50;24.80;;;5.30;99.90;;;;;;5061732;28;20662;-68
2022/03/17 07:04:52;;;;;;;37.10;23.00;;;5.30;99.90;;;;;;5072993;28;20285;-68
2022/03/17 07:07:18;;;;;;;36.70;23.07;;;5.30;99.90;;;;;;5071837;28;20231;-69
2022/03/17 07:09:45;;;;;;;34.83;23.57;;;5.50;99.90;;;;;;5071554;28;20224;-68
2022/03/17 07:12:13;;;;;;;36.67;22.47;;;5.50;99.90;;;;;;5062607;28;20201;-69
2022/03/17 07:14:41;;;;;;;37.90;23.67;;;5.50;99.90;;;;;;5076336;28;20253;-70
2022/03/17 07:17:08;;;;;;;33.70;22.80;;;5.60;99.90;;;;;;5072562;28;20715;-69
2022/03/17 07:19:35;;;;;;;33.37;23.13;;;5.50;99.90;;;;;;5070117;28;20270;-70
2022/03/17 07:22:02;;;;;;;37.00;22.87;;;5.60;99.90;;;;;;5065674;28;20237;-69
2022/03/17 07:24:29;;;;;;;36.77;23.43;;;5.60;99.90;;;;;;5077399;28;20296;-70
2022/03/17 07:26:58;;;;;;;34.60;22.03;;;5.70;99.90;;;;;;5069282;28;20216;-69
2022/03/17 07:29:28;;;;;;;40.73;23.50;;;5.80;99.90;;;;;;5067029;28;20686;-70
2022/03/17 07:31:56;;;;;;;36.80;22.53;;;6.00;99.90;;;;;;5071464;28;20204;-72
2022/03/17 07:34:24;;;;;;;31.97;21.57;;;6.20;99.90;;;;;;5072852;28;20217;-71
2022/03/17 07:36:51;;;;;;;36.20;23.00;;;6.30;99.90;;;;;;5073776;28;20740;-70
2022/03/17 07:39:18;;;;;;;37.43;23.23;;;6.50;99.90;;;;;;5064600;28;20212;-68
2022/03/17 07:41:45;;;;;;;34.37;23.07;;;6.60;99.50;;;;;;5067588;28;20237;-70
2022/03/17 07:44:13;;;;;;;34.87;23.07;;;6.70;99.00;;;;;;5069576;28;20213;-68
2022/03/17 07:46:42;;;;;;;34.43;22.90;;;6.80;98.60;;;;;;5069910;28;20212;-70
2022/03/17 07:49:09;;;;;;;41.90;23.20;;;6.90;98.50;;;;;;5068870;28;20244;-71
2022/03/17 07:51:36;;;;;;;35.67;22.73;;;7.10;98.20;;;;;;5064157;28;20209;-71
2022/03/17 07:54:03;;;;;;;33.53;22.87;;;7.20;98.20;;;;;;5061401;28;20228;-69
2022/03/17 07:56:31;;;;;;;34.07;23.63;;;7.40;97.40;;;;;;5067871;28;20251;-68
2022/03/17 07:58:59;;;;;;;32.37;22.87;;;7.60;97.10;;;;;;5061160;28;20201;-72
2022/03/17 08:01:26;;;;;;;36.57;23.90;;;7.80;96.70;;;;;;5063544;28;20206;-72
2022/03/17 08:03:55;;;;;;;34.00;23.83;;;7.90;95.60;;;;;;5065526;28;20206;-71
2022/03/17 08:06:23;;;;;;;35.77;22.27;;;8.00;95.40;;;;;;5072872;28;20567;-70
2022/03/17 08:08:50;;;;;;;34.00;21.87;;;8.20;95.00;;;;;;5071236;28;20653;-68
2022/03/17 08:11:17;;;;;;;34.13;23.47;;;8.40;94.30;;;;;;5060719;28;20785;-71
2022/03/17 08:13:45;;;;;;;35.67;23.47;;;8.40;93.70;;;;;;5068527;28;20241;-69
2022/03/17 08:16:12;;;;;;;36.43;22.60;;;8.50;93.40;;;;;;5075630;28;20278;-74
2022/03/17 08:18:39;;;;;;;32.67;22.30;;;8.60;92.70;;;;;;5070414;28;20205;-76
2022/03/17 08:21:08;;;;;;;33.13;21.30;;;8.70;92.00;;;;;;5073904;28;20229;-75
2022/03/17 08:23:35;;;;;;;34.53;21.63;;;8.90;91.80;;;;;;5066621;28;20213;-74
2022/03/17 08:26:02;;;;;;;33.90;22.53;;;8.90;91.60;;;;;;5069319;28;20724;-76
2022/03/17 08:28:30;;;;;;;33.07;22.30;;;9.00;91.40;;;;;;5068425;28;20202;-75
2022/03/17 08:30:56;;;;;;;29.20;20.93;;;9.20;90.80;;;;;;5067826;28;20221;-76
2022/03/17 08:33:24;;;;;;;32.07;21.37;;;9.40;90.20;;;;;;5056522;28;20206;-76
2022/03/17 08:35:52;;;;;;;35.43;21.50;;;9.50;90.00;;;;;;5067091;28;20306;-75
2022/03/17 08:38:20;;;;;;;36.50;22.57;;;9.70;89.00;;;;;;5068916;28;20201;-73
2022/03/17 08:40:47;;;;;;;33.47;21.87;;;10.00;86.70;;;;;;5068444;28;20241;-69
2022/03/17 08:43:14;;;;;;;32.77;22.93;;;10.20;85.10;;;;;;5066005;28;20685;-69
2022/03/17 08:51:14;;;;;;;36.83;22.60;;;10.40;80.80;;;;;;5065267;28;20197;-71
2022/03/17 08:53:42;;;;;;;34.17;22.87;;;10.50;80.00;;;;;;5075521;28;20209;-70
2022/03/17 08:56:09;;;;;;;30.57;21.63;;;10.60;79.30;;;;;;5067126;28;20300;-70
2022/03/17 08:58:37;;;;;;;33.50;20.70;;;10.70;78.50;;;;;;5077043;28;20711;-71
2022/03/17 09:01:04;;;;;;;31.83;20.37;;;10.80;77.20;;;;;;5075405;28;20209;-69
2022/03/17 09:03:32;;;;;;;28.80;21.07;;;10.90;76.40;;;;;;5076614;28;20202;-71
2022/03/17 09:06:00;;;;;;;32.47;21.13;;;11.00;75.00;;;;;;5078652;28;20209;-73
2022/03/17 09:08:28;;;;;;;34.30;21.70;;;11.10;74.30;;;;;;5078114;28;20638;-71
2022/03/17 09:10:57;;;;;;;29.40;21.07;;;11.20;74.00;;;;;;5070764;28;20197;-71
2022/03/17 09:13:26;;;;;;;32.77;20.77;;;11.40;73.20;;;;;;5063923;28;20240;-75
2022/03/17 09:15:54;;;;;;;29.73;21.20;;;11.60;72.40;;;;;;5069766;28;20300;-73
2022/03/17 09:18:22;;;;;;;28.60;20.17;;;11.90;74.90;;;;;;5061371;28;20721;-74
2022/03/17 09:20:49;;;;;;;29.73;19.93;;;12.30;73.10;;;;;;5055775;28;20229;-75
2022/03/17 09:23:17;;;;;;;31.40;20.17;;;13.40;72.40;;;;;;5056319;28;20238;-74
2022/03/17 09:25:44;;;;;;;24.90;18.53;;;16.00;66.20;;;;;;5059060;28;20213;-74
2022/03/17 09:28:13;;;;;;;30.48;19.67;;;18.80;54.30;;;;;;5065607;28;20296;-74
2022/03/17 09:30:41;;;;;;;27.13;19.77;;;21.40;48.00;;;;;;5063676;28;20243;-70
2022/03/17 09:33:11;;;;;;;24.45;19.58;;;23.40;42.00;;;;;;5057086;28;20209;-68
2022/03/17 09:35:38;;;;;;;24.65;19.35;;;25.20;38.60;;;;;;5056705;28;20249;-68
2022/03/17 09:38:06;;;;;;;27.40;21.48;;;26.30;36.10;;;;;;5064939;28;20892;-69
2022/03/17 09:40:38;;;;;;;27.30;21.85;;;27.00;33.20;;;;;;5061939;28;20537;-70
2022/03/17 09:43:21;;;;;;;26.70;19.20;;;27.30;31.80;;;;;;5067780;28;20578;-67
2022/03/17 09:45:53;;;;;;;26.52;19.33;;;28.00;31.50;;;;;;5067703;28;20205;-68
2022/03/17 09:48:22;;;;;;;24.80;18.38;;;29.00;30.10;;;;;;5059129;28;20212;-69
2022/03/17 09:50:56;;;;;;;22.83;18.48;;;29.80;29.40;;;;;;5059039;28;20233;-70
2022/03/17 09:53:23;;;;;;;23.17;18.77;;;30.40;28.40;;;;;;5061816;28;20617;-68
2022/03/17 09:55:50;;;;;;;22.67;18.55;;;30.40;27.90;;;;;;5062099;28;20336;-67
2022/03/17 09:58:18;;;;;;;20.60;18.40;;;30.30;27.90;;;;;;5055123;28;20648;-69
2022/03/17 10:00:53;;;;;;;24.67;17.65;;;30.20;27.60;;;;;;5058432;28;20267;-67
2022/03/17 10:03:25;;;;;;;20.77;18.52;;;30.40;27.90;;;;;;5069091;28;20261;-68
2022/03/17 10:05:53;;;;;;;24.13;18.13;;;31.30;27.60;;;;;;5066333;28;20205;-68
2022/03/17 10:08:21;;;;;;;24.15;19.38;;;31.70;26.30;;;;;;5063914;28;20245;-67
2022/03/17 10:10:50;;;;;;;25.30;18.75;;;31.50;26.10;;;;;;5072237;28;20205;-67
2022/03/17 10:13:18;;;;;;;24.25;18.40;;;31.50;26.30;;;;;;5066382;28;20649;-66
2022/03/17 10:15:49;;;;;;;23.40;17.23;;;31.40;26.40;;;;;;5066464;28;20252;-66
2022/03/17 10:18:25;;;;;;;21.33;18.00;;;31.80;26.10;;;;;;5056777;28;20297;-70
2022/03/17 10:21:09;;;;;;;24.52;19.42;;;32.10;25.30;;;;;;5059181;28;20228;-67
2022/03/17 10:23:47;;;;;;;19.95;17.73;;;32.20;26.00;;;;;;5058149;28;20347;-67
2022/03/17 10:26:35;;;;;;;21.38;15.68;;;32.80;25.60;;;;;;5061948;28;20229;-66
2022/03/17 10:29:06;;;;;;;19.27;16.08;;;33.70;24.80;;;;;;5060134;28;20285;-70
2022/03/17 10:31:49;;;;;;;17.98;15.95;;;33.80;23.90;;;;;;5064610;28;20210;-66
2022/03/17 10:34:17;;;;;;;20.00;16.90;;;33.60;24.20;;;;;;5055052;28;20612;-66
2022/03/17 10:36:46;;;;;;;21.75;16.75;;;34.40;24.50;;;;;;5063802;28;20232;-67
2022/03/17 10:39:14;;;;;;;18.90;15.73;;;35.20;23.40;;;;;;5066464;28;20197;-64
2022/03/17 10:41:42;;;;;;;17.27;15.50;;;35.70;23.50;;;;;;5060454;28;20244;-65
2022/03/17 10:44:11;;;;;;;19.63;16.48;;;36.30;23.20;;;;;;5070538;28;20208;-65
2022/03/17 10:46:38;;;;;;;20.73;16.40;;;37.10;22.70;;;;;;5065003;28;20206;-66
2022/03/17 10:49:06;;;;;;;18.40;15.05;;;37.90;22.40;;;;;;5064127;28;20663;-69
2022/03/17 10:51:36;;;;;;;16.60;14.07;;;38.10;21.80;;;;;;5065284;28;20205;-69
2022/03/17 10:54:04;;;;;;;17.58;14.07;;;37.70;21.40;;;;;;5072436;28;20663;-70
2022/03/17 10:56:31;;;;;;;17.80;14.38;;;37.20;21.70;;;;;;5070305;28;20227;-70
2022/03/17 10:59:00;;;;;;;15.75;14.05;;;36.10;21.80;;;;;;5075442;28;20610;-70
2022/03/17 11:01:42;;;;;;;19.17;14.40;;;35.30;22.30;;;;;;5068746;28;20198;-69
2022/03/17 11:04:10;;;;;;;15.80;14.10;;;34.80;22.70;;;;;;5067920;28;20209;-68
2022/03/17 11:06:40;;;;;;;16.63;14.50;;;34.10;22.90;;;;;;5070126;28;20315;-68
2022/03/17 11:09:09;;;;;;;17.35;15.05;;;33.80;23.20;;;;;;5062252;28;20198;-69
2022/03/17 11:11:37;;;;;;;18.90;14.35;;;33.00;22.80;;;;;;5075557;28;20308;-70
2022/03/17 11:14:05;;;;;;;16.52;14.48;;;30.50;23.40;;;;;;5066560;28;20579;-68
2022/03/17 11:16:36;;;;;;;19.20;15.02;;;27.40;25.20;;;;;;5061150;28;20240;-67
2022/03/17 11:19:05;;;;;;;17.35;14.07;;;25.10;27.70;;;;;;5066495;28;20197;-69
2022/03/17 11:21:33;;;;;;;22.08;15.30;;;23.40;28.20;;;;;;5064787;28;20225;-70
2022/03/17 11:24:05;;;;;;;18.10;14.77;;;21.70;29.60;;;;;;5061559;28;20212;-70
2022/03/17 11:26:36;;;;;;;16.73;13.88;;;20.70;30.90;;;;;;5066599;28;20227;-71
2022/03/17 11:29:06;;;;;;;18.98;13.98;;;21.20;33.50;;;;;;5063490;28;20289;-70
2022/03/17 11:31:58;;;;;;;16.65;13.68;;;22.90;32.10;;;;;;5062274;28;20213;-70
2022/03/17 11:34:46;;;;;;;17.05;13.07;;;24.80;29.20;;;;;;5061193;28;20205;-70
2022/03/17 11:37:26;;;;;;;17.95;13.48;;;25.10;27.80;;;;;;5059877;28;20229;-70
2022/03/17 11:39:56;;;;;;;17.15;12.43;;;23.80;28.00;;;;;;5057906;28;20242;-68
2022/03/17 11:42:34;;;;;;;20.98;13.40;;;22.10;29.00;;;;;;5070244;28;20236;-69
2022/03/17 11:45:34;;;;;;;14.88;11.85;;;20.40;30.40;;;;;;5071046;28;20216;-69
2022/03/17 11:48:03;;;;;;;15.88;12.93;;;19.90;32.30;;;;;;5070879;28;20716;-70
2022/03/17 11:50:38;;;;;;;16.77;13.15;;;19.20;34.50;;;;;;5065533;28;20209;-68
2022/03/17 11:53:06;;;;;;;15.48;12.95;;;20.10;34.80;;;;;;5063611;28;20202;-72
2022/03/17 11:55:48;;;;;;;15.32;12.77;;;22.30;32.90;;;;;;5069442;28;20652;-71
2022/03/17 11:58:23;;;;;;;19.77;13.77;;;23.00;29.40;;;;;;5076560;28;20284;-72
2022/03/17 12:00:53;;;;;;;19.25;12.98;;;22.30;30.80;;;;;;5062853;28;20204;-72
2022/03/17 12:03:30;;;;;;;15.48;12.45;;;21.90;30.60;;;;;;5059301;28;20266;-73
2022/03/17 12:06:11;;;;;;;21.05;13.98;;;20.70;30.70;;;;;;5067898;28;20209;-71
2022/03/17 12:08:39;;;;;;;17.67;12.98;;;19.60;33.00;;;;;;5071948;28;20234;-72
2022/03/17 12:11:13;;;;;;;16.35;11.88;;;18.70;33.00;;;;;;5070970;28;20626;-72
2022/03/17 12:13:40;;;;;;;17.67;12.10;;;19.00;35.20;;;;;;5065815;28;20323;-73
2022/03/17 12:16:08;;;;;;;16.80;12.10;;;18.60;33.80;;;;;;5063309;28;21173;-75
2022/03/17 12:19:01;;;;;;;14.82;11.93;;;18.00;33.80;;;;;;5071152;28;20233;-71
2022/03/17 12:22:06;;;;;;;14.88;11.63;;;17.50;34.80;;;;;;5071151;28;20516;-71
2022/03/17 12:24:34;;;;;;;17.00;11.80;;;17.20;36.80;;;;;;5064561;28;20307;-73
2022/03/17 12:27:07;;;;;;;17.60;11.87;;;17.50;36.60;;;;;;5068722;28;20197;-75
2022/03/17 12:29:34;;;;;;;17.50;11.53;;;18.10;36.80;;;;;;5069238;28;20662;-72
2022/03/17 12:32:06;;;;;;;14.07;11.40;;;18.70;35.80;;;;;;5072132;28;20205;-71
2022/03/17 12:34:34;;;;;;;14.57;11.13;;;18.90;33.50;;;;;;5071895;28;20209;-74
2022/03/17 12:37:02;;;;;;;15.13;12.07;;;18.20;33.50;;;;;;5069901;28;20240;-73
2022/03/17 12:39:29;;;;;;;16.47;11.47;;;17.50;35.40;;;;;;5061896;28;20319;-70
2022/03/17 12:41:57;;;;;;;15.37;11.33;;;17.30;35.90;;;;;;5062044;28;20237;-72
2022/03/17 12:44:26;;;;;;;16.40;11.60;;;16.70;35.30;;;;;;5075693;28;20565;-71
2022/03/17 12:46:54;;;;;;;14.82;12.10;;;16.00;35.90;;;;;;5074301;28;21018;-70
2022/03/17 12:49:21;;;;;;;15.07;11.57;;;15.50;37.10;;;;;;5065542;28;20300;-67
2022/03/17 12:51:49;;;;;;;14.10;11.40;;;15.10;37.40;;;;;;5064185;28;20255;-68
2022/03/17 12:54:16;;;;;;;13.97;10.10;;;14.70;37.60;;;;;;5069846;28;20213;-68